sensor_id;sensor_type;location;lat;lon;timestamp;temperature;humidity
40804;DHT22;26515;50.926;5.364;2022-07-22T00:02:01;19.00;99.90
40804;DHT22;26515;50.926;5.364;2022-07-22T00:07:47;19.00;99.90
40804;DHT22;26515;50.926;5.364;2022-07-22T00:10:13;19.00;99.90
40804;DHT22;26515;50.926;5.364;2022-07-22T00:15:16;18.70;99.90
40804;DHT22;26515;50.926;5.364;2022-07-22T00:20:30;18.60;99.90
40804;DHT22;26515;50.926;5.364;2022-07-22T00:22:57;18.60;99.90
40804;DHT22;26515;50.926;5.364;2022-07-22T00:25:22;18.50;99.90
40804;DHT22;26515;50.926;5.364;2022-07-22T00:27:49;18.50;99.90
40804;DHT22;26515;50.926;5.364;2022-07-22T00:30:17;18.50;99.90
40804;DHT22;26515;50.926;5.364;2022-07-22T00:32:59;18.40;99.90
40804;DHT22;26515;50.926;5.364;2022-07-22T00:35:35;18.40;99.90
40804;DHT22;26515;50.926;5.364;2022-07-22T00:38:02;18.30;99.90
40804;DHT22;26515;50.926;5.364;2022-07-22T00:40:31;18.20;99.90
40804;DHT22;26515;50.926;5.364;2022-07-22T00:42:56;18.20;99.90
40804;DHT22;26515;50.926;5.364;2022-07-22T00:45:34;18.30;99.90
40804;DHT22;26515;50.926;5.364;2022-07-22T00:48:00;18.20;99.90
40804;DHT22;26515;50.926;5.364;2022-07-22T00:52:59;18.20;99.90
40804;DHT22;26515;50.926;5.364;2022-07-22T00:55:27;18.10;99.90
40804;DHT22;26515;50.926;5.364;2022-07-22T01:00:58;18.00;99.90
40804;DHT22;26515;50.926;5.364;2022-07-22T01:03:29;18.00;99.90
40804;DHT22;26515;50.926;5.364;2022-07-22T01:05:55;18.00;99.90
40804;DHT22;26515;50.926;5.364;2022-07-22T01:08:21;18.00;99.90
40804;DHT22;26515;50.926;5.364;2022-07-22T01:10:47;17.90;99.90
40804;DHT22;26515;50.926;5.364;2022-07-22T01:13:13;17.90;99.90
40804;DHT22;26515;50.926;5.364;2022-07-22T01:18:20;18.00;99.90
40804;DHT22;26515;50.926;5.364;2022-07-22T01:20:57;18.00;99.90
40804;DHT22;26515;50.926;5.364;2022-07-22T01:23:31;18.00;99.90
40804;DHT22;26515;50.926;5.364;2022-07-22T01:26:08;18.10;99.90
40804;DHT22;26515;50.926;5.364;2022-07-22T01:28:41;18.10;99.90
40804;DHT22;26515;50.926;5.364;2022-07-22T01:36:15;18.30;99.90
40804;DHT22;26515;50.926;5.364;2022-07-22T01:38:41;18.30;99.90
40804;DHT22;26515;50.926;5.364;2022-07-22T01:43:36;18.30;99.90
40804;DHT22;26515;50.926;5.364;2022-07-22T01:46:02;18.20;99.90
40804;DHT22;26515;50.926;5.364;2022-07-22T01:48:30;18.30;99.90
40804;DHT22;26515;50.926;5.364;2022-07-22T01:50:56;18.20;99.90
40804;DHT22;26515;50.926;5.364;2022-07-22T01:53:25;18.20;99.90
40804;DHT22;26515;50.926;5.364;2022-07-22T01:55:52;18.20;99.90
40804;DHT22;26515;50.926;5.364;2022-07-22T01:58:23;18.20;99.90
40804;DHT22;26515;50.926;5.364;2022-07-22T02:00:52;18.20;99.90
40804;DHT22;26515;50.926;5.364;2022-07-22T02:03:18;18.10;99.90
40804;DHT22;26515;50.926;5.364;2022-07-22T02:05:44;18.10;99.90
40804;DHT22;26515;50.926;5.364;2022-07-22T02:08:17;18.10;99.90
40804;DHT22;26515;50.926;5.364;2022-07-22T02:10:43;18.10;99.90
40804;DHT22;26515;50.926;5.364;2022-07-22T02:13:20;18.00;99.90
40804;DHT22;26515;50.926;5.364;2022-07-22T02:15:48;18.00;99.90
40804;DHT22;26515;50.926;5.364;2022-07-22T02:18:15;18.00;99.90
40804;DHT22;26515;50.926;5.364;2022-07-22T02:20:42;18.00;99.90
40804;DHT22;26515;50.926;5.364;2022-07-22T02:23:09;18.00;99.90
40804;DHT22;26515;50.926;5.364;2022-07-22T02:25:36;18.00;99.90
40804;DHT22;26515;50.926;5.364;2022-07-22T02:28:03;17.90;99.90
40804;DHT22;26515;50.926;5.364;2022-07-22T02:33:01;17.80;99.90
40804;DHT22;26515;50.926;5.364;2022-07-22T02:35:27;17.90;99.90
40804;DHT22;26515;50.926;5.364;2022-07-22T02:37:58;17.80;99.90
40804;DHT22;26515;50.926;5.364;2022-07-22T02:40:24;17.90;99.90
40804;DHT22;26515;50.926;5.364;2022-07-22T02:43:04;17.90;99.90
40804;DHT22;26515;50.926;5.364;2022-07-22T02:45:31;17.80;99.90
40804;DHT22;26515;50.926;5.364;2022-07-22T02:48:01;17.80;99.90
40804;DHT22;26515;50.926;5.364;2022-07-22T02:50:28;17.80;99.90
40804;DHT22;26515;50.926;5.364;2022-07-22T02:52:55;17.80;99.90
40804;DHT22;26515;50.926;5.364;2022-07-22T02:55:22;17.80;99.90
40804;DHT22;26515;50.926;5.364;2022-07-22T02:57:49;17.90;99.90
40804;DHT22;26515;50.926;5.364;2022-07-22T03:00:16;17.80;99.90
40804;DHT22;26515;50.926;5.364;2022-07-22T03:02:45;17.80;99.90
40804;DHT22;26515;50.926;5.364;2022-07-22T03:05:12;17.80;99.90
40804;DHT22;26515;50.926;5.364;2022-07-22T03:07:41;17.80;99.90
40804;DHT22;26515;50.926;5.364;2022-07-22T03:10:08;17.70;99.90
40804;DHT22;26515;50.926;5.364;2022-07-22T03:12:34;17.80;99.90
40804;DHT22;26515;50.926;5.364;2022-07-22T03:15:09;17.70;99.90
40804;DHT22;26515;50.926;5.364;2022-07-22T03:17:42;17.60;99.90
40804;DHT22;26515;50.926;5.364;2022-07-22T03:20:08;17.60;99.90
40804;DHT22;26515;50.926;5.364;2022-07-22T03:22:43;17.70;99.90
40804;DHT22;26515;50.926;5.364;2022-07-22T03:25:09;17.60;99.90
40804;DHT22;26515;50.926;5.364;2022-07-22T03:27:46;17.60;99.90
40804;DHT22;26515;50.926;5.364;2022-07-22T03:30:14;17.70;99.90
40804;DHT22;26515;50.926;5.364;2022-07-22T03:32:39;17.70;99.90
40804;DHT22;26515;50.926;5.364;2022-07-22T03:35:21;17.50;99.90
40804;DHT22;26515;50.926;5.364;2022-07-22T03:37:52;17.50;99.90
40804;DHT22;26515;50.926;5.364;2022-07-22T03:40:28;17.50;99.90
40804;DHT22;26515;50.926;5.364;2022-07-22T03:42:58;17.50;99.90
40804;DHT22;26515;50.926;5.364;2022-07-22T03:45:30;17.50;99.90
40804;DHT22;26515;50.926;5.364;2022-07-22T03:47:56;17.40;99.90
40804;DHT22;26515;50.926;5.364;2022-07-22T03:50:24;17.30;99.90
40804;DHT22;26515;50.926;5.364;2022-07-22T03:52:49;17.30;99.90
40804;DHT22;26515;50.926;5.364;2022-07-22T03:55:22;17.30;99.90
40804;DHT22;26515;50.926;5.364;2022-07-22T03:57:56;17.30;99.90
40804;DHT22;26515;50.926;5.364;2022-07-22T04:00:24;17.30;99.90
40804;DHT22;26515;50.926;5.364;2022-07-22T04:02:56;17.30;99.90
40804;DHT22;26515;50.926;5.364;2022-07-22T04:05:36;17.30;99.90
40804;DHT22;26515;50.926;5.364;2022-07-22T04:08:05;17.30;99.90
40804;DHT22;26515;50.926;5.364;2022-07-22T04:10:32;17.20;99.90
40804;DHT22;26515;50.926;5.364;2022-07-22T04:13:01;17.20;99.90
40804;DHT22;26515;50.926;5.364;2022-07-22T04:15:36;17.20;99.90
40804;DHT22;26515;50.926;5.364;2022-07-22T04:20:35;17.10;99.90
40804;DHT22;26515;50.926;5.364;2022-07-22T04:23:02;17.10;99.90
40804;DHT22;26515;50.926;5.364;2022-07-22T04:25:29;17.10;99.90
40804;DHT22;26515;50.926;5.364;2022-07-22T04:30:24;17.10;99.90
40804;DHT22;26515;50.926;5.364;2022-07-22T04:32:50;17.10;99.90
40804;DHT22;26515;50.926;5.364;2022-07-22T04:35:15;17.10;99.90
40804;DHT22;26515;50.926;5.364;2022-07-22T04:37:43;17.20;99.90
40804;DHT22;26515;50.926;5.364;2022-07-22T04:40:16;17.20;99.90
40804;DHT22;26515;50.926;5.364;2022-07-22T04:42:43;17.20;99.90
40804;DHT22;26515;50.926;5.364;2022-07-22T04:45:11;17.20;99.90
40804;DHT22;26515;50.926;5.364;2022-07-22T04:47:42;17.20;99.90
40804;DHT22;26515;50.926;5.364;2022-07-22T04:50:14;17.30;99.90
40804;DHT22;26515;50.926;5.364;2022-07-22T04:52:54;17.30;99.90
40804;DHT22;26515;50.926;5.364;2022-07-22T04:55:22;17.40;99.90
40804;DHT22;26515;50.926;5.364;2022-07-22T04:57:55;17.50;99.90
40804;DHT22;26515;50.926;5.364;2022-07-22T05:00:21;17.60;99.90
40804;DHT22;26515;50.926;5.364;2022-07-22T05:02:50;17.70;99.90
40804;DHT22;26515;50.926;5.364;2022-07-22T05:07:47;17.90;99.90
40804;DHT22;26515;50.926;5.364;2022-07-22T05:10:25;18.00;99.90
40804;DHT22;26515;50.926;5.364;2022-07-22T05:12:53;18.10;99.90
40804;DHT22;26515;50.926;5.364;2022-07-22T05:15:21;18.00;99.90
40804;DHT22;26515;50.926;5.364;2022-07-22T05:17:51;18.10;99.90
40804;DHT22;26515;50.926;5.364;2022-07-22T05:20:29;18.10;99.90
40804;DHT22;26515;50.926;5.364;2022-07-22T05:22:56;18.10;99.90
40804;DHT22;26515;50.926;5.364;2022-07-22T05:25:23;18.20;99.90
40804;DHT22;26515;50.926;5.364;2022-07-22T05:27:53;18.20;99.90
40804;DHT22;26515;50.926;5.364;2022-07-22T05:30:19;18.30;99.90
40804;DHT22;26515;50.926;5.364;2022-07-22T05:32:49;18.50;99.90
40804;DHT22;26515;50.926;5.364;2022-07-22T05:35:19;19.10;99.90
40804;DHT22;26515;50.926;5.364;2022-07-22T05:37:55;20.00;99.90
40804;DHT22;26515;50.926;5.364;2022-07-22T05:42:51;21.90;99.90
40804;DHT22;26515;50.926;5.364;2022-07-22T05:48:09;23.10;99.70
40804;DHT22;26515;50.926;5.364;2022-07-22T05:50:35;23.40;98.60
40804;DHT22;26515;50.926;5.364;2022-07-22T05:53:03;23.90;98.20
40804;DHT22;26515;50.926;5.364;2022-07-22T05:58:18;25.30;94.90
40804;DHT22;26515;50.926;5.364;2022-07-22T06:00:52;25.70;92.90
40804;DHT22;26515;50.926;5.364;2022-07-22T06:03:30;25.90;91.90
40804;DHT22;26515;50.926;5.364;2022-07-22T06:08:40;26.20;90.40
40804;DHT22;26515;50.926;5.364;2022-07-22T06:11:18;26.90;86.30
40804;DHT22;26515;50.926;5.364;2022-07-22T06:13:43;27.50;86.50
40804;DHT22;26515;50.926;5.364;2022-07-22T06:16:09;28.10;81.20
40804;DHT22;26515;50.926;5.364;2022-07-22T06:18:43;28.00;78.80
40804;DHT22;26515;50.926;5.364;2022-07-22T06:21:11;28.00;76.80
40804;DHT22;26515;50.926;5.364;2022-07-22T06:23:45;28.30;74.90
40804;DHT22;26515;50.926;5.364;2022-07-22T06:26:22;28.00;75.70
40804;DHT22;26515;50.926;5.364;2022-07-22T06:28:54;28.20;76.10
40804;DHT22;26515;50.926;5.364;2022-07-22T06:33:54;29.40;70.00
40804;DHT22;26515;50.926;5.364;2022-07-22T06:36:28;28.80;70.10
40804;DHT22;26515;50.926;5.364;2022-07-22T06:38:57;28.90;69.70
40804;DHT22;26515;50.926;5.364;2022-07-22T06:41:23;29.20;69.00
40804;DHT22;26515;50.926;5.364;2022-07-22T06:43:55;28.80;67.60
40804;DHT22;26515;50.926;5.364;2022-07-22T06:46:23;29.00;68.70
40804;DHT22;26515;50.926;5.364;2022-07-22T06:48:50;29.70;68.40
40804;DHT22;26515;50.926;5.364;2022-07-22T06:51:19;30.40;65.70
40804;DHT22;26515;50.926;5.364;2022-07-22T06:53:44;30.90;66.80
40804;DHT22;26515;50.926;5.364;2022-07-22T06:56:16;31.50;65.70
40804;DHT22;26515;50.926;5.364;2022-07-22T07:09:05;32.00;62.20
40804;DHT22;26515;50.926;5.364;2022-07-22T07:11:39;32.20;61.40
40804;DHT22;26515;50.926;5.364;2022-07-22T07:16:41;30.00;63.60
40804;DHT22;26515;50.926;5.364;2022-07-22T07:19:20;29.90;65.80
40804;DHT22;26515;50.926;5.364;2022-07-22T07:21:56;30.00;63.20
40804;DHT22;26515;50.926;5.364;2022-07-22T07:24:33;31.20;64.90
40804;DHT22;26515;50.926;5.364;2022-07-22T07:27:08;32.50;60.20
40804;DHT22;26515;50.926;5.364;2022-07-22T07:29:35;33.30;58.60
40804;DHT22;26515;50.926;5.364;2022-07-22T07:32:02;33.20;57.60
40804;DHT22;26515;50.926;5.364;2022-07-22T07:34:37;32.80;59.00
40804;DHT22;26515;50.926;5.364;2022-07-22T07:37:03;32.70;58.10
40804;DHT22;26515;50.926;5.364;2022-07-22T07:39:31;31.70;58.40
40804;DHT22;26515;50.926;5.364;2022-07-22T07:44:42;33.10;57.50
40804;DHT22;26515;50.926;5.364;2022-07-22T07:47:08;34.10;55.30
40804;DHT22;26515;50.926;5.364;2022-07-22T07:52:25;34.70;54.40
40804;DHT22;26515;50.926;5.364;2022-07-22T07:54:52;35.40;55.20
40804;DHT22;26515;50.926;5.364;2022-07-22T07:57:18;35.90;53.00
40804;DHT22;26515;50.926;5.364;2022-07-22T07:59:44;34.90;51.20
40804;DHT22;26515;50.926;5.364;2022-07-22T08:05:04;34.90;54.90
40804;DHT22;26515;50.926;5.364;2022-07-22T08:07:31;35.20;53.50
40804;DHT22;26515;50.926;5.364;2022-07-22T08:10:02;35.70;51.40
40804;DHT22;26515;50.926;5.364;2022-07-22T08:12:28;36.40;50.30
40804;DHT22;26515;50.926;5.364;2022-07-22T08:14:54;36.80;51.40
40804;DHT22;26515;50.926;5.364;2022-07-22T08:17:25;37.20;50.30
40804;DHT22;26515;50.926;5.364;2022-07-22T08:19:55;37.10;49.80
40804;DHT22;26515;50.926;5.364;2022-07-22T08:22:29;37.00;49.10
40804;DHT22;26515;50.926;5.364;2022-07-22T08:27:36;34.50;52.10
40804;DHT22;26515;50.926;5.364;2022-07-22T08:30:03;33.10;55.40
40804;DHT22;26515;50.926;5.364;2022-07-22T08:32:32;32.50;55.30
40804;DHT22;26515;50.926;5.364;2022-07-22T08:34:58;31.80;56.80
40804;DHT22;26515;50.926;5.364;2022-07-22T08:37:23;31.40;57.40
40804;DHT22;26515;50.926;5.364;2022-07-22T08:39:59;31.30;58.40
40804;DHT22;26515;50.926;5.364;2022-07-22T08:45:05;29.80;59.10
40804;DHT22;26515;50.926;5.364;2022-07-22T08:47:31;29.80;60.00
40804;DHT22;26515;50.926;5.364;2022-07-22T08:52:26;32.00;58.40
40804;DHT22;26515;50.926;5.364;2022-07-22T08:57:51;33.40;55.10
40804;DHT22;26515;50.926;5.364;2022-07-22T09:00:19;34.20;53.00
40804;DHT22;26515;50.926;5.364;2022-07-22T09:02:55;34.60;52.80
40804;DHT22;26515;50.926;5.364;2022-07-22T09:05:32;35.40;52.30
40804;DHT22;26515;50.926;5.364;2022-07-22T09:07:59;36.00;51.50
40804;DHT22;26515;50.926;5.364;2022-07-22T09:10:29;36.00;51.00
40804;DHT22;26515;50.926;5.364;2022-07-22T09:13:03;35.70;52.20
40804;DHT22;26515;50.926;5.364;2022-07-22T09:15:36;35.30;50.40
40804;DHT22;26515;50.926;5.364;2022-07-22T09:18:04;34.80;52.80
40804;DHT22;26515;50.926;5.364;2022-07-22T09:20:34;35.10;52.60
40804;DHT22;26515;50.926;5.364;2022-07-22T09:23:00;35.10;52.00
40804;DHT22;26515;50.926;5.364;2022-07-22T09:25:34;35.40;54.00
40804;DHT22;26515;50.926;5.364;2022-07-22T09:33:35;36.30;52.40
40804;DHT22;26515;50.926;5.364;2022-07-22T09:38:38;37.60;50.60
40804;DHT22;26515;50.926;5.364;2022-07-22T09:41:14;37.70;48.40
40804;DHT22;26515;50.926;5.364;2022-07-22T09:43:40;38.00;50.00
40804;DHT22;26515;50.926;5.364;2022-07-22T09:46:06;37.80;50.20
40804;DHT22;26515;50.926;5.364;2022-07-22T09:48:34;37.20;48.50
40804;DHT22;26515;50.926;5.364;2022-07-22T09:51:04;36.90;49.20
40804;DHT22;26515;50.926;5.364;2022-07-22T09:56:00;37.10;49.10
40804;DHT22;26515;50.926;5.364;2022-07-22T09:58:35;37.10;49.50
40804;DHT22;26515;50.926;5.364;2022-07-22T10:01:05;37.20;48.20
40804;DHT22;26515;50.926;5.364;2022-07-22T10:03:44;37.40;48.60
40804;DHT22;26515;50.926;5.364;2022-07-22T10:06:17;38.00;48.70
40804;DHT22;26515;50.926;5.364;2022-07-22T10:08:50;38.20;49.40
40804;DHT22;26515;50.926;5.364;2022-07-22T10:13:45;39.40;47.40
40804;DHT22;26515;50.926;5.364;2022-07-22T10:16:24;38.90;45.50
40804;DHT22;26515;50.926;5.364;2022-07-22T10:18:57;38.40;48.10
40804;DHT22;26515;50.926;5.364;2022-07-22T10:21:33;38.10;48.10
40804;DHT22;26515;50.926;5.364;2022-07-22T10:24:10;37.40;48.20
40804;DHT22;26515;50.926;5.364;2022-07-22T10:26:47;37.00;49.30
40804;DHT22;26515;50.926;5.364;2022-07-22T10:40:15;36.60;51.30
40804;DHT22;26515;50.926;5.364;2022-07-22T10:45:39;37.30;48.60
40804;DHT22;26515;50.926;5.364;2022-07-22T10:56:33;37.50;48.10
40804;DHT22;26515;50.926;5.364;2022-07-22T11:01:42;37.30;48.60
40804;DHT22;26515;50.926;5.364;2022-07-22T11:04:26;36.50;49.00
40804;DHT22;26515;50.926;5.364;2022-07-22T11:06:52;36.10;49.10
40804;DHT22;26515;50.926;5.364;2022-07-22T11:09:19;35.70;50.90
40804;DHT22;26515;50.926;5.364;2022-07-22T11:11:54;35.40;50.30
40804;DHT22;26515;50.926;5.364;2022-07-22T11:14:34;35.10;51.60
40804;DHT22;26515;50.926;5.364;2022-07-22T11:17:15;35.10;50.80
40804;DHT22;26515;50.926;5.364;2022-07-22T11:19:52;34.70;51.30
40804;DHT22;26515;50.926;5.364;2022-07-22T11:22:18;34.70;51.70
40804;DHT22;26515;50.926;5.364;2022-07-22T11:27:38;35.10;51.90
40804;DHT22;26515;50.926;5.364;2022-07-22T11:30:04;35.30;50.00
40804;DHT22;26515;50.926;5.364;2022-07-22T11:32:40;34.70;51.20
40804;DHT22;26515;50.926;5.364;2022-07-22T11:35:14;34.20;52.50
40804;DHT22;26515;50.926;5.364;2022-07-22T11:37:54;34.30;52.90
40804;DHT22;26515;50.926;5.364;2022-07-22T11:40:23;34.70;51.40
40804;DHT22;26515;50.926;5.364;2022-07-22T11:43:14;34.20;51.30
40804;DHT22;26515;50.926;5.364;2022-07-22T11:45:56;34.40;53.60
40804;DHT22;26515;50.926;5.364;2022-07-22T11:48:29;35.00;51.10
40804;DHT22;26515;50.926;5.364;2022-07-22T11:51:03;34.70;51.90
40804;DHT22;26515;50.926;5.364;2022-07-22T11:53:40;34.60;53.10
40804;DHT22;26515;50.926;5.364;2022-07-22T11:56:08;34.20;52.30
40804;DHT22;26515;50.926;5.364;2022-07-22T11:58:51;33.80;53.60
40804;DHT22;26515;50.926;5.364;2022-07-22T12:01:22;33.80;53.90
40804;DHT22;26515;50.926;5.364;2022-07-22T12:03:49;34.00;53.70
40804;DHT22;26515;50.926;5.364;2022-07-22T12:06:16;33.90;53.90
40804;DHT22;26515;50.926;5.364;2022-07-22T12:08:44;34.00;52.80
40804;DHT22;26515;50.926;5.364;2022-07-22T12:11:11;34.10;53.20
40804;DHT22;26515;50.926;5.364;2022-07-22T12:13:42;33.90;52.30
40804;DHT22;26515;50.926;5.364;2022-07-22T12:18:52;33.50;54.20
40804;DHT22;26515;50.926;5.364;2022-07-22T12:21:18;33.00;54.50
40804;DHT22;26515;50.926;5.364;2022-07-22T12:23:51;32.80;57.30
40804;DHT22;26515;50.926;5.364;2022-07-22T12:26:17;32.70;56.50
40804;DHT22;26515;50.926;5.364;2022-07-22T12:28:43;32.50;56.90
40804;DHT22;26515;50.926;5.364;2022-07-22T12:31:08;32.50;55.30
40804;DHT22;26515;50.926;5.364;2022-07-22T12:33:34;32.30;55.20
40804;DHT22;26515;50.926;5.364;2022-07-22T12:38:28;31.40;56.90
40804;DHT22;26515;50.926;5.364;2022-07-22T12:43:44;31.30;60.90
40804;DHT22;26515;50.926;5.364;2022-07-22T12:48:53;30.70;60.30
40804;DHT22;26515;50.926;5.364;2022-07-22T12:51:29;31.10;60.10
40804;DHT22;26515;50.926;5.364;2022-07-22T12:53:55;31.20;61.50
40804;DHT22;26515;50.926;5.364;2022-07-22T12:56:21;31.20;58.50
40804;DHT22;26515;50.926;5.364;2022-07-22T12:58:49;30.90;58.40
40804;DHT22;26515;50.926;5.364;2022-07-22T13:01:16;30.70;60.20
40804;DHT22;26515;50.926;5.364;2022-07-22T13:03:42;30.80;60.00
40804;DHT22;26515;50.926;5.364;2022-07-22T13:06:11;30.80;58.20
40804;DHT22;26515;50.926;5.364;2022-07-22T13:08:39;30.80;59.70
40804;DHT22;26515;50.926;5.364;2022-07-22T13:11:11;30.60;59.50
40804;DHT22;26515;50.926;5.364;2022-07-22T13:13:50;30.60;59.30
40804;DHT22;26515;50.926;5.364;2022-07-22T13:16:16;30.70;59.10
40804;DHT22;26515;50.926;5.364;2022-07-22T13:18:55;30.90;57.40
40804;DHT22;26515;50.926;5.364;2022-07-22T13:21:21;30.70;58.50
40804;DHT22;26515;50.926;5.364;2022-07-22T13:26:18;31.00;58.00
40804;DHT22;26515;50.926;5.364;2022-07-22T13:28:44;30.90;59.60
40804;DHT22;26515;50.926;5.364;2022-07-22T13:34:15;30.90;58.30
40804;DHT22;26515;50.926;5.364;2022-07-22T13:36:46;30.70;58.30
40804;DHT22;26515;50.926;5.364;2022-07-22T13:39:16;30.60;58.10
40804;DHT22;26515;50.926;5.364;2022-07-22T13:41:43;30.40;59.40
40804;DHT22;26515;50.926;5.364;2022-07-22T13:44:10;30.30;60.30
40804;DHT22;26515;50.926;5.364;2022-07-22T13:46:47;30.00;59.50
40804;DHT22;26515;50.926;5.364;2022-07-22T13:49:14;29.90;61.00
40804;DHT22;26515;50.926;5.364;2022-07-22T13:51:44;30.20;60.90
40804;DHT22;26515;50.926;5.364;2022-07-22T13:54:12;30.40;59.90
40804;DHT22;26515;50.926;5.364;2022-07-22T13:56:38;30.60;58.80
40804;DHT22;26515;50.926;5.364;2022-07-22T13:59:03;30.60;58.80
40804;DHT22;26515;50.926;5.364;2022-07-22T14:01:34;30.80;59.80
40804;DHT22;26515;50.926;5.364;2022-07-22T14:04:09;30.90;58.30
40804;DHT22;26515;50.926;5.364;2022-07-22T14:12:03;30.70;59.00
40804;DHT22;26515;50.926;5.364;2022-07-22T14:14:29;30.60;59.00
40804;DHT22;26515;50.926;5.364;2022-07-22T14:16:58;30.70;59.00
40804;DHT22;26515;50.926;5.364;2022-07-22T14:21:53;30.10;59.90
40804;DHT22;26515;50.926;5.364;2022-07-22T14:24:25;30.10;58.80
40804;DHT22;26515;50.926;5.364;2022-07-22T14:27:00;30.20;60.40
40804;DHT22;26515;50.926;5.364;2022-07-22T14:29:31;30.10;60.30
40804;DHT22;26515;50.926;5.364;2022-07-22T14:31:57;30.20;60.70
40804;DHT22;26515;50.926;5.364;2022-07-22T14:34:23;30.50;60.00
40804;DHT22;26515;50.926;5.364;2022-07-22T14:37:00;30.70;58.80
40804;DHT22;26515;50.926;5.364;2022-07-22T14:39:26;30.60;59.90
40804;DHT22;26515;50.926;5.364;2022-07-22T14:41:55;30.50;60.00
40804;DHT22;26515;50.926;5.364;2022-07-22T14:47:10;30.60;59.10
40804;DHT22;26515;50.926;5.364;2022-07-22T14:49:46;30.30;60.60
40804;DHT22;26515;50.926;5.364;2022-07-22T14:52:18;29.60;61.30
40804;DHT22;26515;50.926;5.364;2022-07-22T14:54:54;29.50;61.10
40804;DHT22;26515;50.926;5.364;2022-07-22T14:59:52;29.40;62.20
40804;DHT22;26515;50.926;5.364;2022-07-22T15:05:07;29.20;62.60
40804;DHT22;26515;50.926;5.364;2022-07-22T15:07:34;29.30;61.60
40804;DHT22;26515;50.926;5.364;2022-07-22T15:10:00;29.40;62.40
40804;DHT22;26515;50.926;5.364;2022-07-22T15:12:26;29.30;62.50
40804;DHT22;26515;50.926;5.364;2022-07-22T15:14:51;29.20;61.50
40804;DHT22;26515;50.926;5.364;2022-07-22T15:17:20;29.20;62.50
40804;DHT22;26515;50.926;5.364;2022-07-22T15:22:14;29.20;61.80
40804;DHT22;26515;50.926;5.364;2022-07-22T15:24:40;29.50;60.60
40804;DHT22;26515;50.926;5.364;2022-07-22T15:27:05;29.20;62.00
40804;DHT22;26515;50.926;5.364;2022-07-22T15:29:36;29.10;63.70
40804;DHT22;26515;50.926;5.364;2022-07-22T15:32:16;28.80;62.30
40804;DHT22;26515;50.926;5.364;2022-07-22T15:34:43;28.70;63.60
40804;DHT22;26515;50.926;5.364;2022-07-22T15:37:21;28.60;62.50
40804;DHT22;26515;50.926;5.364;2022-07-22T15:42:24;28.70;63.20
40804;DHT22;26515;50.926;5.364;2022-07-22T15:44:55;28.60;62.00
40804;DHT22;26515;50.926;5.364;2022-07-22T15:47:22;28.60;63.20
40804;DHT22;26515;50.926;5.364;2022-07-22T15:49:48;28.60;63.90
40804;DHT22;26515;50.926;5.364;2022-07-22T15:52:15;28.50;65.00
40804;DHT22;26515;50.926;5.364;2022-07-22T15:54:42;28.50;63.90
40804;DHT22;26515;50.926;5.364;2022-07-22T16:02:47;28.60;64.50
40804;DHT22;26515;50.926;5.364;2022-07-22T16:05:15;28.60;63.40
40804;DHT22;26515;50.926;5.364;2022-07-22T16:07:40;28.40;65.20
40804;DHT22;26515;50.926;5.364;2022-07-22T16:10:07;28.00;63.80
40804;DHT22;26515;50.926;5.364;2022-07-22T16:12:38;28.00;64.80
40804;DHT22;26515;50.926;5.364;2022-07-22T16:15:06;28.10;65.00
40804;DHT22;26515;50.926;5.364;2022-07-22T16:17:33;28.00;64.80
40804;DHT22;26515;50.926;5.364;2022-07-22T16:20:03;28.00;65.10
40804;DHT22;26515;50.926;5.364;2022-07-22T16:25:02;27.80;65.70
40804;DHT22;26515;50.926;5.364;2022-07-22T16:27:29;27.80;65.80
40804;DHT22;26515;50.926;5.364;2022-07-22T16:29:57;27.80;65.70
40804;DHT22;26515;50.926;5.364;2022-07-22T16:32:24;28.00;65.80
40804;DHT22;26515;50.926;5.364;2022-07-22T16:34:49;28.10;65.90
40804;DHT22;26515;50.926;5.364;2022-07-22T16:37:15;28.10;66.80
40804;DHT22;26515;50.926;5.364;2022-07-22T16:39:41;28.10;65.70
40804;DHT22;26515;50.926;5.364;2022-07-22T16:42:07;28.10;66.00
40804;DHT22;26515;50.926;5.364;2022-07-22T16:44:33;27.90;65.90
40804;DHT22;26515;50.926;5.364;2022-07-22T16:49:36;27.70;65.80
40804;DHT22;26515;50.926;5.364;2022-07-22T16:52:08;27.60;66.90
40804;DHT22;26515;50.926;5.364;2022-07-22T16:54:34;27.50;66.80
40804;DHT22;26515;50.926;5.364;2022-07-22T16:59:35;27.60;66.60
40804;DHT22;26515;50.926;5.364;2022-07-22T17:02:01;27.50;66.40
40804;DHT22;26515;50.926;5.364;2022-07-22T17:06:57;27.20;67.50
40804;DHT22;26515;50.926;5.364;2022-07-22T17:09:25;27.20;67.60
40804;DHT22;26515;50.926;5.364;2022-07-22T17:11:51;27.10;67.20
40804;DHT22;26515;50.926;5.364;2022-07-22T17:14:32;27.10;67.70
40804;DHT22;26515;50.926;5.364;2022-07-22T17:19:38;26.90;68.50
40804;DHT22;26515;50.926;5.364;2022-07-22T17:22:08;26.90;68.90
40804;DHT22;26515;50.926;5.364;2022-07-22T17:24:44;26.80;68.60
40804;DHT22;26515;50.926;5.364;2022-07-22T17:27:10;26.90;68.70
40804;DHT22;26515;50.926;5.364;2022-07-22T17:29:39;26.70;69.00
40804;DHT22;26515;50.926;5.364;2022-07-22T17:32:07;26.70;68.60
40804;DHT22;26515;50.926;5.364;2022-07-22T17:34:33;26.60;70.00
40804;DHT22;26515;50.926;5.364;2022-07-22T17:36:59;26.60;69.50
40804;DHT22;26515;50.926;5.364;2022-07-22T17:39:27;26.60;69.60
40804;DHT22;26515;50.926;5.364;2022-07-22T17:41:52;26.50;69.60
40804;DHT22;26515;50.926;5.364;2022-07-22T17:46:50;26.40;70.00
40804;DHT22;26515;50.926;5.364;2022-07-22T17:49:34;26.20;70.30
40804;DHT22;26515;50.926;5.364;2022-07-22T17:52:00;26.10;69.70
40804;DHT22;26515;50.926;5.364;2022-07-22T17:54:28;26.00;70.10
40804;DHT22;26515;50.926;5.364;2022-07-22T17:56:54;25.80;70.00
40804;DHT22;26515;50.926;5.364;2022-07-22T17:59:20;25.70;71.00
40804;DHT22;26515;50.926;5.364;2022-07-22T18:01:56;25.50;71.80
40804;DHT22;26515;50.926;5.364;2022-07-22T18:04:30;25.50;72.60
40804;DHT22;26515;50.926;5.364;2022-07-22T18:06:56;25.40;72.50
40804;DHT22;26515;50.926;5.364;2022-07-22T18:09:24;25.50;72.20
40804;DHT22;26515;50.926;5.364;2022-07-22T18:11:50;25.40;72.20
40804;DHT22;26515;50.926;5.364;2022-07-22T18:14:16;25.50;72.20
40804;DHT22;26515;50.926;5.364;2022-07-22T18:17:00;25.50;72.70
40804;DHT22;26515;50.926;5.364;2022-07-22T18:19:27;25.30;73.00
40804;DHT22;26515;50.926;5.364;2022-07-22T18:21:58;25.10;72.70
40804;DHT22;26515;50.926;5.364;2022-07-22T18:26:54;25.00;73.10
40804;DHT22;26515;50.926;5.364;2022-07-22T18:29:30;25.00;73.80
40804;DHT22;26515;50.926;5.364;2022-07-22T18:31:55;24.90;73.60
40804;DHT22;26515;50.926;5.364;2022-07-22T18:34:23;24.90;74.00
40804;DHT22;26515;50.926;5.364;2022-07-22T18:39:40;24.90;74.60
40804;DHT22;26515;50.926;5.364;2022-07-22T18:42:06;24.70;74.60
40804;DHT22;26515;50.926;5.364;2022-07-22T18:44:33;24.80;74.80
40804;DHT22;26515;50.926;5.364;2022-07-22T18:47:03;24.70;74.50
40804;DHT22;26515;50.926;5.364;2022-07-22T18:49:34;24.70;74.70